Cozahome, Arkansas
Current Conditions -  °F | °C
As of 1:55 AM on Thursday 23 Oct 2014 (Local Time) from KFLP Reporting Station
Overcast Overcast  
Wind Chill: 45°   Ceiling: 500
Heat Index: 45°   Visibility: 0.75mi
Dew Point: 39°   Wind: 0mph
Humidity: 81%   Direction: NA
Pressure: 30.19"   Gusts: NA
Location:  35.9848°N, 92.4926°W
Report Text: KFLP 230655Z AUTO 00000KT 3/4SM VV005 07/04 A3019 RMK AO1
Loading
Personal Weather Stations






























Interactive Weather Map
Tropical Storm Tracking
New forecast layout! Learn more

10-Day Weather Forecast

Advertisements
Track Severe Weather on mobile